createdAt,value
2018-01-11T00:00:12.496Z,98.54
2018-01-11T00:02:40.028Z,98.75
2018-01-11T00:05:07.571Z,98.70
2018-01-11T00:07:35.097Z,98.41
2018-01-11T00:10:02.641Z,98.33
2018-01-11T00:12:30.167Z,98.48
2018-01-11T00:14:57.696Z,98.43
2018-01-11T00:17:25.197Z,98.43
2018-01-11T00:19:52.720Z,98.46
2018-01-11T00:22:20.236Z,98.65
2018-01-11T00:24:47.736Z,98.35
2018-01-11T00:27:15.270Z,98.40
2018-01-11T00:29:42.806Z,98.71
2018-01-11T00:32:10.334Z,99.10
2018-01-11T00:34:37.849Z,99.13
2018-01-11T00:37:05.362Z,99.32
2018-01-11T00:39:32.881Z,99.38
2018-01-11T00:42:00.398Z,99.30
2018-01-11T00:44:27.957Z,99.18
2018-01-11T00:46:55.463Z,99.03
2018-01-11T00:49:22.998Z,99.07
2018-01-11T00:51:50.545Z,99.23
2018-01-11T00:54:18.051Z,99.37
2018-01-11T00:56:45.605Z,99.30
2018-01-11T00:59:13.142Z,99.20
2018-01-11T01:01:40.686Z,99.09
2018-01-11T01:04:08.197Z,99.05
2018-01-11T01:06:35.971Z,99.20
2018-01-11T01:09:03.525Z,99.10
2018-01-11T01:11:31.042Z,98.69
2018-01-11T01:13:58.570Z,98.66
2018-01-11T01:16:26.115Z,98.83
2018-01-11T01:18:53.776Z,98.91
2018-01-11T01:21:21.290Z,99.15
2018-01-11T01:23:48.837Z,99.48
2018-01-11T01:26:16.336Z,99.84
2018-01-11T01:28:43.867Z,99.90
2018-01-11T01:31:11.430Z,99.96
2018-01-11T01:33:38.963Z,99.88
2018-01-11T01:36:06.472Z,99.92
2018-01-11T01:38:34.146Z,99.95
2018-01-11T01:41:01.662Z,100.00
2018-01-11T01:43:29.196Z,100.00
2018-01-11T01:45:56.717Z,100.00
2018-01-11T01:48:36.092Z,100.00
2018-01-11T01:51:03.722Z,100.00
2018-01-11T01:53:31.270Z,100.00
2018-01-11T01:55:58.781Z,100.00
2018-01-11T01:58:26.357Z,100.00
2018-01-11T02:00:53.878Z,100.00
2018-01-11T02:03:21.435Z,100.00
2018-01-11T02:05:48.940Z,100.00
2018-01-11T02:08:16.452Z,100.00
2018-01-11T02:10:43.951Z,100.00
2018-01-11T02:13:11.466Z,100.00
2018-01-11T02:15:39.006Z,100.00
2018-01-11T02:18:06.522Z,100.00
2018-01-11T02:20:34.037Z,99.90
2018-01-11T02:23:01.555Z,99.71
2018-01-11T02:25:29.140Z,99.67
2018-01-11T02:27:56.666Z,99.75
2018-01-11T02:30:24.187Z,99.78
2018-01-11T02:32:51.712Z,99.61
2018-01-11T02:35:19.382Z,99.59
2018-01-11T02:37:46.886Z,99.44
2018-01-11T02:40:14.406Z,99.37
2018-01-11T02:42:41.931Z,99.41
2018-01-11T02:45:09.456Z,99.41
2018-01-11T02:47:37.005Z,99.15
2018-01-11T02:50:04.550Z,99.01
2018-01-11T02:52:32.065Z,99.09
2018-01-11T02:54:59.672Z,98.82
2018-01-11T02:57:27.224Z,99.07
2018-01-11T02:59:54.751Z,99.56
2018-01-11T03:02:22.292Z,99.92
2018-01-11T03:04:49.860Z,100.00
2018-01-11T03:07:17.402Z,100.00
2018-01-11T03:09:45.006Z,100.00
2018-01-11T03:12:12.550Z,100.00
2018-01-11T03:14:40.081Z,100.00
2018-01-11T03:17:07.611Z,100.00
2018-01-11T03:19:35.140Z,100.00
2018-01-11T03:22:02.657Z,100.00
2018-01-11T03:24:30.175Z,100.00
2018-01-11T03:26:57.822Z,100.00
2018-01-11T03:29:25.335Z,99.88
2018-01-11T03:31:52.841Z,99.77
2018-01-11T03:34:20.357Z,99.48
2018-01-11T03:36:47.861Z,99.56
2018-01-11T03:39:15.366Z,99.77
2018-01-11T03:41:42.945Z,99.77
2018-01-11T03:44:10.480Z,99.76
2018-01-11T03:46:38.017Z,99.87
2018-01-11T03:49:05.602Z,99.83
2018-01-11T03:51:33.155Z,99.85
2018-01-11T03:54:00.696Z,99.74
2018-01-11T03:56:28.243Z,99.61
2018-01-11T03:58:55.790Z,99.57
2018-01-11T04:01:23.391Z,99.78
2018-01-11T04:03:50.922Z,100.00
2018-01-11T04:06:18.440Z,100.00
2018-01-11T04:08:46.002Z,100.00
2018-01-11T04:11:13.556Z,99.85
2018-01-11T04:13:41.073Z,99.86
2018-01-11T04:16:08.612Z,99.86
2018-01-11T04:18:36.135Z,99.78
2018-01-11T04:21:03.671Z,99.63
2018-01-11T04:23:31.202Z,99.61
2018-01-11T04:25:58.721Z,99.60
2018-01-11T04:28:26.260Z,99.56
2018-01-11T04:30:53.792Z,99.62
2018-01-11T04:33:21.347Z,99.70
2018-01-11T04:35:48.871Z,99.66
2018-01-11T04:38:16.373Z,99.68
2018-01-11T04:40:43.893Z,99.61
2018-01-11T04:43:11.447Z,99.56
2018-01-11T04:45:38.963Z,99.82
2018-01-11T04:48:06.485Z,99.86
2018-01-11T04:50:33.998Z,99.77
2018-01-11T04:53:01.502Z,99.60
2018-01-11T04:55:29.105Z,99.69
2018-01-11T04:57:56.626Z,99.73
2018-01-11T05:00:24.167Z,99.69
2018-01-11T05:02:51.761Z,99.65
2018-01-11T05:05:19.253Z,99.46
2018-01-11T05:07:46.776Z,99.39
2018-01-11T05:10:14.288Z,98.90
2018-01-11T05:12:41.827Z,98.87
2018-01-11T05:15:09.506Z,99.12
2018-01-11T05:17:37.021Z,99.41
2018-01-11T05:20:04.537Z,99.55
2018-01-11T05:22:32.093Z,99.56
2018-01-11T05:24:59.743Z,99.56
2018-01-11T05:27:27.457Z,99.43
2018-01-11T05:29:54.977Z,99.27
2018-01-11T05:32:22.491Z,99.20
2018-01-11T05:34:50.023Z,99.47
2018-01-11T05:37:17.639Z,99.53
2018-01-11T05:39:45.132Z,99.73
2018-01-11T05:42:12.653Z,99.90
2018-01-11T05:44:40.199Z,99.99
2018-01-11T05:47:07.718Z,99.96
2018-01-11T05:49:35.221Z,100.00
2018-01-11T05:52:02.817Z,99.97
2018-01-11T05:54:30.331Z,99.65
2018-01-11T05:56:57.867Z,99.74
2018-01-11T05:59:25.394Z,99.95
2018-01-11T06:01:52.909Z,100.00
2018-01-11T06:04:20.456Z,100.00
2018-01-11T06:06:47.976Z,100.00
2018-01-11T06:09:15.491Z,100.00
2018-01-11T06:11:43.016Z,100.00
2018-01-11T06:14:10.566Z,100.00
2018-01-11T06:16:38.087Z,100.00
2018-01-11T06:19:05.738Z,99.91
2018-01-11T06:21:33.257Z,99.87
2018-01-11T06:24:00.792Z,99.83
2018-01-11T06:26:28.323Z,99.24
2018-01-11T06:28:55.852Z,99.20
2018-01-11T06:31:23.373Z,99.15
2018-01-11T06:33:50.922Z,98.69
2018-01-11T06:36:19.102Z,98.51
2018-01-11T06:38:46.628Z,98.60
2018-01-11T06:41:14.167Z,98.87
2018-01-11T06:43:41.726Z,99.14
2018-01-11T06:46:09.242Z,99.12
2018-01-11T06:48:36.761Z,99.08
2018-01-11T06:51:04.317Z,99.16
2018-01-11T06:53:31.846Z,99.19
2018-01-11T06:55:59.378Z,99.12
2018-01-11T06:58:26.971Z,99.08
2018-01-11T07:00:54.493Z,99.21
2018-01-11T07:03:22.057Z,99.22
2018-01-11T07:05:49.598Z,99.30
2018-01-11T07:08:17.109Z,99.43
2018-01-11T07:10:44.642Z,99.46
2018-01-11T07:13:12.181Z,99.62
2018-01-11T07:15:39.733Z,99.89
2018-01-11T07:18:07.292Z,99.83
2018-01-11T07:20:34.838Z,99.72
2018-01-11T07:23:02.371Z,99.72
2018-01-11T07:25:29.917Z,99.74
2018-01-11T07:27:57.447Z,99.57
2018-01-11T07:30:25.004Z,99.57
2018-01-11T07:32:52.548Z,99.67
2018-01-11T07:35:20.077Z,99.80
2018-01-11T07:37:47.586Z,99.73
2018-01-11T07:40:15.112Z,99.71
2018-01-11T07:42:42.673Z,99.52
2018-01-11T07:45:10.217Z,99.28
2018-01-11T07:47:37.881Z,99.25
2018-01-11T07:50:05.445Z,99.25
2018-01-11T07:52:32.976Z,99.30
2018-01-11T07:55:00.487Z,99.41
2018-01-11T07:57:28.045Z,99.13
2018-01-11T07:59:55.569Z,99.11
2018-01-11T08:02:23.100Z,99.24
2018-01-11T08:04:50.645Z,99.47
2018-01-11T08:07:18.172Z,99.18
2018-01-11T08:09:45.712Z,98.71
2018-01-11T08:12:13.256Z,98.62
2018-01-11T08:14:40.802Z,98.75
2018-01-11T08:17:08.366Z,98.82
2018-01-11T08:19:35.944Z,98.71
2018-01-11T08:22:03.464Z,98.40
2018-01-11T08:24:30.993Z,98.18
2018-01-11T08:26:58.508Z,98.19
2018-01-11T08:29:26.018Z,98.03
2018-01-11T08:31:53.543Z,97.79
2018-01-11T08:34:21.083Z,97.76
2018-01-11T08:36:48.611Z,97.30
2018-01-11T08:39:16.137Z,96.88
2018-01-11T08:41:43.650Z,96.83
2018-01-11T08:44:11.162Z,95.87
2018-01-11T08:46:38.677Z,94.69
2018-01-11T08:49:06.234Z,94.20
2018-01-11T08:51:33.763Z,93.37
2018-01-11T08:54:01.293Z,94.44
2018-01-11T08:56:28.812Z,94.32
2018-01-11T08:58:56.346Z,93.79
2018-01-11T09:01:23.882Z,92.86
2018-01-11T09:03:51.393Z,90.02
2018-01-11T09:06:18.894Z,86.84
2018-01-11T09:08:46.419Z,87.13
2018-01-11T09:11:13.956Z,87.51
2018-01-11T09:13:41.492Z,85.87
2018-01-11T09:16:09.199Z,86.13
2018-01-11T09:18:36.852Z,86.68
2018-01-11T09:21:04.492Z,85.94
2018-01-11T09:23:32.004Z,84.85
2018-01-11T09:25:59.653Z,84.88
2018-01-11T09:28:27.192Z,85.86
2018-01-11T09:30:54.728Z,85.88
2018-01-11T09:33:22.291Z,84.95
2018-01-11T09:35:49.808Z,83.43
2018-01-11T09:38:17.327Z,81.76
2018-01-11T09:40:44.837Z,83.12
2018-01-11T09:43:12.366Z,84.56
2018-01-11T09:45:40.007Z,84.42
2018-01-11T09:48:07.512Z,84.46
2018-01-11T09:50:35.052Z,83.41
2018-01-11T09:53:02.568Z,82.65
2018-01-11T09:55:30.091Z,82.12
2018-01-11T09:57:57.647Z,80.52
2018-01-11T10:00:25.167Z,79.42
2018-01-11T10:02:52.734Z,77.86
2018-01-11T10:05:20.280Z,76.74
2018-01-11T10:07:47.823Z,78.01
2018-01-11T10:10:15.344Z,75.68
2018-01-11T10:12:42.843Z,77.69
2018-01-11T10:15:10.362Z,75.70
2018-01-11T10:17:37.871Z,73.26
2018-01-11T10:20:05.407Z,73.86
2018-01-11T10:22:32.977Z,75.28
2018-01-11T10:25:00.497Z,72.79
2018-01-11T10:27:28.104Z,72.74
2018-01-11T10:29:55.612Z,73.78
2018-01-11T10:32:23.309Z,75.49
2018-01-11T10:34:50.837Z,76.98
2018-01-11T10:37:18.344Z,75.79
2018-01-11T10:39:45.874Z,75.64
2018-01-11T10:42:13.409Z,75.88
2018-01-11T10:44:40.948Z,75.02
2018-01-11T10:47:08.487Z,78.05
2018-01-11T10:49:36.009Z,82.40
2018-01-11T10:52:03.534Z,80.64
2018-01-11T10:54:31.062Z,75.90
2018-01-11T10:56:58.573Z,69.06
2018-01-11T10:59:26.091Z,68.15
2018-01-11T11:01:59.298Z,68.50
2018-01-11T11:04:26.813Z,68.31
2018-01-11T11:06:54.327Z,67.78
2018-01-11T11:09:21.878Z,64.58
2018-01-11T11:11:49.393Z,63.19
2018-01-11T11:14:16.937Z,63.32
2018-01-11T11:16:44.516Z,65.46
2018-01-11T11:19:12.049Z,65.07
2018-01-11T11:21:39.569Z,64.22
2018-01-11T11:24:07.077Z,64.60
2018-01-11T11:26:34.586Z,59.70
2018-01-11T11:29:02.184Z,59.34
2018-01-11T11:31:29.707Z,59.40
2018-01-11T11:33:57.262Z,57.62
2018-01-11T11:36:24.809Z,53.46
2018-01-11T11:38:52.333Z,53.09
2018-01-11T11:41:19.852Z,53.73
2018-01-11T11:43:47.374Z,54.25
2018-01-11T11:46:15.084Z,53.45
2018-01-11T11:48:42.662Z,50.99
2018-01-11T11:51:10.192Z,48.43
2018-01-11T11:53:37.725Z,46.05
2018-01-11T11:56:05.271Z,44.93
2018-01-11T11:58:32.813Z,42.52
2018-01-11T12:01:00.362Z,38.52
2018-01-11T12:03:27.937Z,37.11
2018-01-11T12:05:55.450Z,42.21
2018-01-11T12:08:22.974Z,45.20
2018-01-11T12:10:50.488Z,46.60
2018-01-11T12:13:18.062Z,43.60
2018-01-11T12:15:45.607Z,44.42
2018-01-11T12:18:13.307Z,45.24
2018-01-11T12:20:40.854Z,44.32
2018-01-11T12:23:08.408Z,46.29
2018-01-11T12:25:35.953Z,46.16
2018-01-11T12:28:03.523Z,55.52
2018-01-11T12:30:31.095Z,59.40
2018-01-11T12:32:58.646Z,58.46
2018-01-11T12:35:26.389Z,59.60
2018-01-11T12:37:53.999Z,59.17
2018-01-11T12:40:21.529Z,58.46
2018-01-11T12:42:49.152Z,61.68
2018-01-11T12:45:16.647Z,60.63
2018-01-11T12:47:44.218Z,59.97
2018-01-11T12:50:11.746Z,58.07
2018-01-11T12:52:39.278Z,56.71
2018-01-11T12:55:06.833Z,55.99
2018-01-11T12:57:34.364Z,53.68
2018-01-11T13:00:02.059Z,55.55
2018-01-11T13:02:29.597Z,58.46
2018-01-11T13:04:57.165Z,55.56
2018-01-11T13:07:24.701Z,54.18
2018-01-11T13:09:52.264Z,53.36
2018-01-11T13:12:19.788Z,51.20
2018-01-11T13:14:47.314Z,52.42
2018-01-11T13:17:14.847Z,54.38
2018-01-11T13:19:42.372Z,54.22
2018-01-11T13:22:09.900Z,56.78
2018-01-11T13:24:37.463Z,56.77
2018-01-11T13:27:04.984Z,55.76
2018-01-11T13:29:32.617Z,55.43
2018-01-11T13:32:00.168Z,54.44
2018-01-11T13:34:27.706Z,57.52
2018-01-11T13:36:55.297Z,57.17
2018-01-11T13:39:22.836Z,57.23
2018-01-11T13:41:50.382Z,57.67
2018-01-11T13:44:17.927Z,59.04
2018-01-11T13:46:45.471Z,58.46
2018-01-11T13:49:13.093Z,58.43
2018-01-11T13:51:40.622Z,59.59
2018-01-11T13:54:08.147Z,59.47
2018-01-11T13:56:35.828Z,60.57
2018-01-11T13:59:03.348Z,62.95
2018-01-11T14:01:30.857Z,65.02
2018-01-11T14:03:58.378Z,65.63
2018-01-11T14:06:25.919Z,67.46
2018-01-11T14:08:53.897Z,67.43
2018-01-11T14:11:21.840Z,65.79
2018-01-11T14:13:49.371Z,65.65
2018-01-11T14:16:16.965Z,65.99
2018-01-11T14:18:44.618Z,65.84
2018-01-11T14:21:12.228Z,66.12
2018-01-11T14:23:39.993Z,67.25
2018-01-11T14:26:07.690Z,67.19
2018-01-11T14:28:35.212Z,67.01
2018-01-11T14:31:02.745Z,66.37
2018-01-11T14:33:30.312Z,66.67
2018-01-11T14:35:57.842Z,68.12
2018-01-11T14:38:25.382Z,68.25
2018-01-11T14:40:52.903Z,69.14
2018-01-11T14:43:20.414Z,68.89
2018-01-11T14:45:48.079Z,68.39
2018-01-11T14:48:15.627Z,68.89
2018-01-11T14:50:43.262Z,70.06
2018-01-11T14:53:10.812Z,70.55
2018-01-11T14:55:38.337Z,71.42
2018-01-11T14:58:05.893Z,70.96
2018-01-11T15:00:33.428Z,71.89
2018-01-11T15:03:00.963Z,71.46
2018-01-11T15:05:28.658Z,72.23
2018-01-11T15:07:56.208Z,73.25
2018-01-11T15:10:23.754Z,73.23
2018-01-11T15:12:51.280Z,74.19
2018-01-11T15:15:18.816Z,75.61
2018-01-11T15:17:46.349Z,76.93
2018-01-11T15:20:13.879Z,78.05
2018-01-11T15:22:41.419Z,78.48
2018-01-11T15:25:08.933Z,79.29
2018-01-11T15:27:36.469Z,79.85
2018-01-11T15:30:03.979Z,80.70
2018-01-11T15:32:31.508Z,80.80
2018-01-11T15:34:59.039Z,80.93
2018-01-11T15:37:26.566Z,82.19
2018-01-11T15:39:54.182Z,82.46
2018-01-11T15:42:21.710Z,82.83
2018-01-11T15:44:49.240Z,83.87
2018-01-11T15:47:16.799Z,84.48
2018-01-11T15:49:44.412Z,84.55
2018-01-11T15:52:12.026Z,84.89
2018-01-11T15:54:39.530Z,85.20
2018-01-11T15:57:07.046Z,85.75
2018-01-11T15:59:34.580Z,85.66
2018-01-11T16:02:02.128Z,85.89
2018-01-11T16:04:30.258Z,86.33
2018-01-11T16:06:57.745Z,86.67
2018-01-11T16:09:25.251Z,87.23
2018-01-11T16:11:52.779Z,87.46
2018-01-11T16:14:20.356Z,87.89
2018-01-11T16:16:47.925Z,88.06
2018-01-11T16:19:15.445Z,88.20
2018-01-11T16:21:42.961Z,88.55
2018-01-11T16:24:10.495Z,88.75
2018-01-11T16:26:38.023Z,88.72
2018-01-11T16:29:05.569Z,88.81
2018-01-11T16:31:33.124Z,88.56
2018-01-11T16:34:00.663Z,88.38
2018-01-11T16:36:28.228Z,88.49
2018-01-11T16:38:55.782Z,88.64
2018-01-11T16:41:23.545Z,88.71
2018-01-11T16:43:51.089Z,88.81
2018-01-11T16:46:18.619Z,89.90
2018-01-11T16:48:46.160Z,90.23
2018-01-11T16:51:13.680Z,90.73
2018-01-11T16:53:41.265Z,90.19
2018-01-11T16:56:08.820Z,89.78
2018-01-11T16:58:36.384Z,90.14
2018-01-11T17:01:03.969Z,90.18
2018-01-11T17:03:31.506Z,90.31
2018-01-11T17:05:59.038Z,91.06
2018-01-11T17:08:26.589Z,91.45
2018-01-11T17:10:54.123Z,91.68
2018-01-11T17:13:21.676Z,91.69
2018-01-11T17:15:49.238Z,91.47
2018-01-11T17:18:16.782Z,91.69
2018-01-11T17:20:44.310Z,92.01
2018-01-11T17:23:11.848Z,91.96
2018-01-11T17:25:39.399Z,92.20
2018-01-11T17:28:06.954Z,92.24
2018-01-11T17:30:34.481Z,92.22
2018-01-11T17:33:02.223Z,92.80
2018-01-11T17:35:29.884Z,93.09
2018-01-11T17:37:57.415Z,93.15
2018-01-11T17:40:24.973Z,92.96
2018-01-11T17:42:52.557Z,92.62
2018-01-11T17:45:20.068Z,93.19
2018-01-11T17:47:47.601Z,94.01
2018-01-11T17:50:15.135Z,94.19
2018-01-11T17:52:42.688Z,94.43
2018-01-11T17:55:10.220Z,94.64
2018-01-11T17:57:37.778Z,94.74
2018-01-11T18:00:05.325Z,94.77
2018-01-11T18:02:32.851Z,94.66
2018-01-11T18:05:00.383Z,94.68
2018-01-11T18:07:27.941Z,94.67
2018-01-11T18:09:55.628Z,94.60
2018-01-11T18:12:23.268Z,94.57
2018-01-11T18:14:50.809Z,94.80
2018-01-11T18:17:18.355Z,94.95
2018-01-11T18:19:45.889Z,94.47
2018-01-11T18:42:55.611Z,94.91
2018-01-11T18:45:23.279Z,94.91
2018-01-11T18:47:54.310Z,94.47
2018-01-11T18:50:35.039Z,94.51
2018-01-11T18:53:02.777Z,95.03
2018-01-11T18:55:30.464Z,94.10
2018-01-11T19:01:27.027Z,95.17
2018-01-11T19:03:54.708Z,95.16
2018-01-11T19:06:22.395Z,94.92
2018-01-11T19:08:50.315Z,95.09
2018-01-11T19:11:17.981Z,95.47
2018-01-11T19:16:59.010Z,95.61
2018-01-11T19:19:26.644Z,95.71
2018-01-11T19:21:54.302Z,95.81
2018-01-11T19:24:22.027Z,95.81
2018-01-11T19:26:49.705Z,95.71
2018-01-11T19:29:17.480Z,95.97
2018-01-11T19:31:45.134Z,96.14
2018-01-11T19:34:21.564Z,96.12
2018-01-11T19:36:49.431Z,96.33
2018-01-11T19:39:17.066Z,96.38
2018-01-11T19:41:44.845Z,96.32
2018-01-11T19:44:12.539Z,96.22
2018-01-11T19:46:40.251Z,96.12
2018-01-11T19:49:08.100Z,96.27
2018-01-11T19:51:35.780Z,96.16
2018-01-11T19:54:03.466Z,96.29
2018-01-11T19:56:31.049Z,96.41
2018-01-11T19:58:58.978Z,96.03
2018-01-11T20:01:26.746Z,96.40
2018-01-11T20:03:54.399Z,96.42
2018-01-11T20:06:22.059Z,96.61
2018-01-11T20:08:49.730Z,96.30
2018-01-11T20:11:17.424Z,95.76
2018-01-11T20:13:45.141Z,96.41
2018-01-11T20:16:12.899Z,96.71
2018-01-11T20:18:40.579Z,96.74
2018-01-11T20:21:08.314Z,96.41
2018-01-11T20:23:36.034Z,96.23
2018-01-11T20:26:03.681Z,96.17
2018-01-11T20:28:31.288Z,95.65
2018-01-11T20:30:58.958Z,95.12
2018-01-11T20:33:26.720Z,95.38
2018-01-11T20:35:54.700Z,95.40
2018-01-11T20:38:22.338Z,95.26
2018-01-11T20:40:50.221Z,95.36
2018-01-11T20:43:18.029Z,95.38
2018-01-11T20:45:45.680Z,95.26
2018-01-11T20:48:13.388Z,95.14
2018-01-11T20:50:41.325Z,95.02
2018-01-11T20:53:08.999Z,95.02
2018-01-11T20:55:36.719Z,94.88
2018-01-11T20:58:04.465Z,94.68
2018-01-11T21:00:32.255Z,94.65
2018-01-11T21:03:00.042Z,94.60
2018-01-11T21:05:27.690Z,94.28
2018-01-11T21:07:55.400Z,92.98
2018-01-11T21:10:23.280Z,92.37
2018-01-11T21:12:50.926Z,92.84
2018-01-11T21:15:18.731Z,92.53
2018-01-11T21:17:46.390Z,93.46
2018-01-11T21:20:14.149Z,94.01
2018-01-11T21:22:41.864Z,94.01
2018-01-11T21:25:09.566Z,94.16
2018-01-11T21:27:37.210Z,94.01
2018-01-11T21:30:04.860Z,94.05
2018-01-11T21:32:32.531Z,93.61
2018-01-11T21:35:00.175Z,93.32
2018-01-11T21:37:27.855Z,93.18
2018-01-11T21:39:55.633Z,93.48
2018-01-11T21:42:23.430Z,93.48
2018-01-11T21:44:51.094Z,93.79
2018-01-11T21:47:18.869Z,94.09
2018-01-11T21:49:46.608Z,94.31
2018-01-11T21:52:15.215Z,94.20
2018-01-11T21:54:42.950Z,94.12
2018-01-11T21:57:10.648Z,94.38
2018-01-11T21:59:38.289Z,94.13
2018-01-11T22:02:05.945Z,94.10
2018-01-11T22:04:33.603Z,93.41
2018-01-11T22:07:01.261Z,93.88
2018-01-11T22:09:29.018Z,93.11
2018-01-11T22:11:56.678Z,93.35
2018-01-11T22:14:24.585Z,93.43
2018-01-11T22:16:52.394Z,93.00
2018-01-11T22:19:20.137Z,93.00
2018-01-11T22:21:47.805Z,93.19
2018-01-11T22:24:15.490Z,93.61
2018-01-11T22:26:43.148Z,93.36
2018-01-11T22:29:10.754Z,93.45
2018-01-11T22:31:38.396Z,92.94
2018-01-11T22:34:06.063Z,93.31
2018-01-11T22:36:33.750Z,92.58
2018-01-11T22:39:01.444Z,92.15
2018-01-11T22:41:29.095Z,92.35
2018-01-11T22:43:56.745Z,92.55
2018-01-11T22:46:24.429Z,92.70
2018-01-11T22:48:52.064Z,92.44
2018-01-11T22:51:19.701Z,92.06
2018-01-11T22:53:47.680Z,92.15
2018-01-11T22:56:15.324Z,92.61
2018-01-11T22:58:43.139Z,92.89
2018-01-11T23:01:10.819Z,92.78
2018-01-11T23:03:38.484Z,92.87
2018-01-11T23:06:06.145Z,93.32
2018-01-11T23:08:33.814Z,93.77
2018-01-11T23:11:01.575Z,93.92
2018-01-11T23:13:29.201Z,94.06
2018-01-11T23:15:56.875Z,94.24
2018-01-11T23:18:24.519Z,93.07
2018-01-11T23:20:52.155Z,92.97
2018-01-11T23:23:19.868Z,93.21
2018-01-11T23:25:47.529Z,93.34
2018-01-11T23:28:15.205Z,93.68
2018-01-11T23:30:43.073Z,94.05
2018-01-11T23:33:10.698Z,94.10
2018-01-11T23:35:38.320Z,93.54
2018-01-11T23:38:06.210Z,93.70
2018-01-11T23:40:33.858Z,93.58
2018-01-11T23:43:01.504Z,93.19
2018-01-11T23:45:29.275Z,93.78
2018-01-11T23:47:56.950Z,93.77
2018-01-11T23:50:24.703Z,93.72
2018-01-11T23:52:52.438Z,92.31
2018-01-11T23:55:23.428Z,92.02
